首页
METAR-TAF:

METAR-TAF

机场 :

哥伦比亚, 南卡罗来纳州, 美国

纬度: 33-56-31N, 经度: 081-07-05W, 海拔: 71米

当前天气观测

该预报发布于24分钟前的05:56 UTC
静风
温度 11°C
湿度 100%
气压 1011 hPa
能見度: 8.0公里
多云层高于15000英尺
轻雾

METAR: KCAE 260556Z 00000KT 5SM BR BKN150 11/11 A2985 RMK AO2 SLP108 T01110106 10139 20111 58008

时间: 01:20 (06:20 UTC)

预报

该预报发布于40分钟前的05:40 UTC
预报有效从26日的 06点(UTC)到 27日的 06点(UTC)
风速6节,风向东转东南
能見度: 10公里
散云层高于4000英尺
多云层高于15000英尺
短暂存在
从 26日的 06点(UTC)到 26日的 10点(UTC)
能見度: 6.4公里
散云层高于1200英尺
多云层高于4000英尺
轻雾
从 26日的 1000点(UTC)
风速7节,风向南转西南
能見度: 10公里
散云层高于700英尺
多云层高于1200英尺
从 26日的 1400点(UTC)
风速10节,风向西南,有时为20节阵风
能見度: 10公里
散云层高于700英尺
多云层高于1500英尺
附近有阵雨
从 26日的 1900点(UTC)
风速12节,风向西转西南,有时为20节阵风
能見度: 10公里
散云层高于2500英尺
多云层高于3500英尺
从 26日的 2300点(UTC)
风速8节,风向西转西南
能見度: 10公里
多云层高于4000英尺

TAF: KCAE 260540Z 2606/2706 11006KT P6SM SCT040 BKN150 TEMPO 2606/2610 4SM BR SCT012 BKN040 FM261000 21007KT P6SM SCT007 BKN012 FM261400 23010G20KT P6SM VCSH SCT007 BKN015 FM261900 24012G20KT P6SM SCT025 BKN035 FM262300 24008KT P6SM BKN040

超过4000个机场的气象观测和天气预报(METAR&TAF报告)。

可查询的气象台以黄色和红色小点在地图上表示。

将鼠标移到小点上方,可查看气象台名称。

然后点击查看天气观测和预报。

如需切换地图:点击带黑十字的绿色按钮放大地图;点击带横线的绿色按钮缩小地图;或者点击绿色箭头查看邻近地区的地图。


METAR-TAF: